Time;durP1;ratioP1;P1;durP2;ratioP2;P2;SDS_P1;SDS_P2;PMS_P1;PMS_P2;Temp;Humidity;BMP_temperature;BMP_pressure;BME280_temperature;BME280_humidity;BME280_pressure;Samples;Min_cycle;Max_cycle;Signal;HPM_P1;HPM_P2
2021/08/19 00:00:00;;;;;;;14.82;9.88;;;16.20;96.20;;;;;;4973020;28;20042;-53
2021/08/19 00:02:26;;;;;;;15.18;10.60;;;16.20;96.10;;;;;;4963992;28;20517;-48
2021/08/19 00:04:52;;;;;;;16.50;10.75;;;16.20;96.10;;;;;;4966086;28;20105;-49
2021/08/19 00:07:18;;;;;;;16.40;10.73;;;16.20;96.10;;;;;;4973971;28;20389;-53
2021/08/19 00:09:44;;;;;;;19.30;10.23;;;16.20;96.10;;;;;;4964002;28;20039;-52
2021/08/19 00:12:10;;;;;;;14.13;10.18;;;16.20;96.10;;;;;;4973648;28;20039;-53
2021/08/19 00:14:37;;;;;;;18.13;9.90;;;16.20;96.10;;;;;;4972463;28;20105;-57
2021/08/19 00:17:04;;;;;;;15.20;10.02;;;16.20;96.10;;;;;;4970756;28;20046;-52
2021/08/19 00:19:29;;;;;;;15.63;10.38;;;16.20;96.10;;;;;;4972100;28;20050;-54
2021/08/19 00:21:55;;;;;;;16.80;10.10;;;16.20;96.10;;;;;;4968960;28;20411;-50
2021/08/19 00:24:21;;;;;;;15.07;9.55;;;16.20;96.10;;;;;;4970672;28;20046;-52
2021/08/19 00:26:47;;;;;;;14.57;10.18;;;16.20;96.00;;;;;;4972955;28;20057;-52
2021/08/19 00:29:12;;;;;;;16.27;10.30;;;16.20;96.00;;;;;;4949095;28;20134;-52
2021/08/19 00:31:38;;;;;;;17.58;10.20;;;16.20;96.00;;;;;;4961207;28;20039;-52
2021/08/19 00:34:04;;;;;;;13.93;9.68;;;16.20;96.00;;;;;;4968504;28;20510;-52
2021/08/19 00:36:30;;;;;;;13.32;10.02;;;16.20;96.00;;;;;;4965324;28;20066;-55
2021/08/19 00:38:57;;;;;;;14.90;10.75;;;16.20;96.00;;;;;;4962764;28;20454;-54
2021/08/19 00:41:23;;;;;;;14.43;9.90;;;16.20;96.00;;;;;;4970536;28;20039;-49
2021/08/19 00:43:51;;;;;;;16.75;10.45;;;16.20;96.00;;;;;;4969653;28;20487;-52
2021/08/19 00:46:29;;;;;;;15.90;10.00;;;16.20;96.00;;;;;;4972979;28;20483;-50
2021/08/19 00:48:59;;;;;;;16.58;9.45;;;16.20;96.10;;;;;;4970978;28;20054;-51
2021/08/19 00:51:30;;;;;;;14.80;9.48;;;16.20;96.00;;;;;;4971969;28;20043;-52
2021/08/19 00:53:57;;;;;;;13.98;9.93;;;16.20;96.00;;;;;;4974269;28;20066;-55
2021/08/19 00:56:22;;;;;;;13.77;9.30;;;16.20;96.00;;;;;;4973137;28;20074;-51
2021/08/19 00:58:48;;;;;;;17.05;9.43;;;16.20;96.00;;;;;;4971594;28;20080;-48
2021/08/19 01:01:14;;;;;;;14.20;9.93;;;16.20;95.90;;;;;;4968641;28;20039;-49
2021/08/19 01:03:39;;;;;;;15.65;9.02;;;16.20;95.90;;;;;;4971221;28;20039;-48
2021/08/19 01:06:05;;;;;;;16.08;10.05;;;16.20;95.90;;;;;;4970917;28;20047;-48
2021/08/19 01:08:33;;;;;;;16.67;9.23;;;16.10;95.90;;;;;;4972714;28;20045;-53
2021/08/19 01:11:01;;;;;;;14.35;9.05;;;16.20;95.90;;;;;;4964640;28;20051;-53
2021/08/19 01:13:26;;;;;;;15.88;9.95;;;16.10;95.80;;;;;;4965798;28;20150;-55
2021/08/19 01:15:52;;;;;;;15.93;9.35;;;16.20;95.80;;;;;;4973087;28;20470;-50
2021/08/19 01:18:18;;;;;;;13.02;9.00;;;16.10;95.70;;;;;;4967153;28;20039;-48
2021/08/19 01:20:43;;;;;;;12.52;9.10;;;16.10;95.70;;;;;;4972248;28;20047;-51
2021/08/19 01:23:09;;;;;;;13.02;9.50;;;16.10;95.70;;;;;;4969444;28;20515;-53
2021/08/19 01:25:34;;;;;;;13.30;9.05;;;16.10;95.70;;;;;;4970299;28;20455;-52
2021/08/19 01:28:00;;;;;;;12.15;8.70;;;16.10;95.60;;;;;;4965236;28;20054;-52
2021/08/19 01:30:26;;;;;;;14.05;8.93;;;16.00;95.60;;;;;;4966011;28;20468;-52
2021/08/19 01:32:52;;;;;;;14.30;9.57;;;16.10;95.60;;;;;;4960778;28;20049;-53
2021/08/19 01:35:20;;;;;;;13.45;9.63;;;16.10;95.60;;;;;;4969643;28;20122;-51
2021/08/19 01:37:46;;;;;;;11.27;9.23;;;16.10;95.60;;;;;;4964931;28;20051;-51
2021/08/19 01:40:13;;;;;;;15.55;9.10;;;16.10;95.60;;;;;;4963208;28;20053;-50
2021/08/19 01:42:43;;;;;;;14.52;8.88;;;16.10;95.60;;;;;;4969465;28;20043;-52
2021/08/19 01:45:10;;;;;;;13.48;9.50;;;16.10;95.60;;;;;;4967074;28;20706;-55
2021/08/19 01:47:35;;;;;;;12.90;8.82;;;16.10;95.60;;;;;;4971990;28;20097;-52
2021/08/19 01:50:02;;;;;;;13.00;9.35;;;16.10;95.50;;;;;;4965638;28;20050;-51
2021/08/19 01:52:28;;;;;;;15.73;10.30;;;16.10;95.50;;;;;;4968289;28;20066;-53
2021/08/19 01:54:53;;;;;;;12.00;9.18;;;16.10;95.50;;;;;;4969773;28;20074;-51
2021/08/19 01:57:19;;;;;;;12.63;8.90;;;16.00;95.40;;;;;;4971654;28;20046;-52
2021/08/19 01:59:45;;;;;;;13.90;9.15;;;16.00;95.40;;;;;;4963952;28;20066;-55
2021/08/19 02:02:10;;;;;;;13.15;9.02;;;16.00;95.40;;;;;;4960395;28;20043;-53
2021/08/19 02:04:36;;;;;;;13.60;9.88;;;16.00;95.40;;;;;;4965999;28;20476;-56
2021/08/19 02:07:02;;;;;;;13.27;8.95;;;16.00;95.40;;;;;;4966576;28;20074;-54
2021/08/19 02:09:27;;;;;;;12.18;9.55;;;16.00;95.40;;;;;;4968712;28;20114;-52
2021/08/19 02:11:53;;;;;;;16.65;11.18;;;16.00;95.50;;;;;;4966128;28;20396;-52
2021/08/19 02:14:20;;;;;;;18.25;11.20;;;16.00;95.50;;;;;;4970842;28;20061;-52
2021/08/19 02:16:46;;;;;;;18.05;11.57;;;15.90;95.70;;;;;;4971942;28;20475;-49
2021/08/19 02:19:12;;;;;;;17.10;12.50;;;15.80;95.80;;;;;;4971391;28;20034;-51
2021/08/19 02:21:37;;;;;;;16.85;11.95;;;15.80;96.00;;;;;;4958922;28;20042;-52
2021/08/19 02:24:03;;;;;;;16.42;12.30;;;15.80;96.10;;;;;;4968622;28;20098;-53
2021/08/19 02:26:29;;;;;;;17.52;12.93;;;15.70;96.50;;;;;;4969367;28;20042;-54
2021/08/19 02:28:54;;;;;;;17.98;12.65;;;15.70;96.60;;;;;;4974941;28;20054;-55
2021/08/19 02:31:20;;;;;;;20.80;12.98;;;15.60;96.60;;;;;;4975487;28;20043;-52
2021/08/19 02:33:46;;;;;;;21.92;14.00;;;15.60;96.60;;;;;;4972479;28;20433;-54
2021/08/19 02:36:11;;;;;;;20.38;14.27;;;15.60;96.80;;;;;;4975567;28;20395;-54
2021/08/19 02:38:37;;;;;;;18.98;13.90;;;15.60;97.00;;;;;;4972385;28;20479;-53
2021/08/19 02:41:03;;;;;;;19.85;14.77;;;15.50;96.90;;;;;;4973884;28;20077;-53
2021/08/19 02:43:29;;;;;;;22.95;15.18;;;15.50;97.00;;;;;;4978399;28;20042;-53
2021/08/19 02:45:54;;;;;;;20.42;14.65;;;15.50;97.10;;;;;;4956094;28;20074;-50
2021/08/19 02:48:21;;;;;;;19.83;15.27;;;15.50;97.20;;;;;;4951634;28;20483;-48
2021/08/19 02:50:47;;;;;;;20.90;15.85;;;15.50;97.30;;;;;;4961238;28;20117;-49
2021/08/19 02:53:12;;;;;;;18.90;15.18;;;15.50;97.50;;;;;;4972817;28;20137;-49
2021/08/19 02:55:38;;;;;;;26.88;16.20;;;15.50;97.50;;;;;;4971868;23;20039;-52
2021/08/19 02:58:03;;;;;;;22.67;15.18;;;15.50;97.50;;;;;;4954841;29;20061;-51
2021/08/19 03:00:29;;;;;;;21.10;15.80;;;15.40;97.40;;;;;;4951183;28;20521;-53
2021/08/19 03:02:55;;;;;;;20.83;16.38;;;15.50;97.50;;;;;;4952224;29;20575;-47
2021/08/19 03:05:22;;;;;;;24.98;16.65;;;15.50;97.60;;;;;;4923883;29;20058;-50
2021/08/19 03:07:48;;;;;;;24.40;16.58;;;15.40;97.70;;;;;;4950060;29;20035;-51
2021/08/19 03:10:15;;;;;;;24.75;17.35;;;15.50;97.70;;;;;;4957374;29;20071;-52
2021/08/19 03:12:42;;;;;;;22.70;17.20;;;15.50;97.70;;;;;;4935373;29;20460;-49
2021/08/19 03:15:09;;;;;;;23.13;17.67;;;15.40;97.80;;;;;;4945061;29;20067;-52
2021/08/19 03:17:34;;;;;;;22.08;16.40;;;15.40;97.80;;;;;;4942807;29;20044;-50
2021/08/19 03:20:00;;;;;;;20.67;17.13;;;15.50;97.90;;;;;;4955555;29;20050;-53
2021/08/19 03:22:27;;;;;;;22.63;17.20;;;15.40;97.90;;;;;;4970343;28;20038;-53
2021/08/19 03:24:53;;;;;;;23.60;17.52;;;15.50;97.90;;;;;;4950321;28;20043;-54
2021/08/19 03:27:19;;;;;;;23.40;17.50;;;15.40;97.90;;;;;;4937368;29;20051;-50
2021/08/19 03:29:45;;;;;;;23.50;17.15;;;15.50;97.90;;;;;;4956172;29;20039;-54
2021/08/19 03:32:10;;;;;;;26.60;18.45;;;15.50;98.00;;;;;;4953900;29;20054;-52
2021/08/19 03:34:36;;;;;;;24.35;17.13;;;15.50;98.00;;;;;;4954575;29;20043;-52
2021/08/19 03:37:03;;;;;;;22.58;18.05;;;15.50;98.10;;;;;;4905721;29;20049;-53
2021/08/19 03:39:30;;;;;;;23.75;18.35;;;15.50;98.10;;;;;;4955011;29;20054;-53
2021/08/19 03:41:55;;;;;;;22.75;17.27;;;15.50;98.10;;;;;;4949694;29;20074;-50
2021/08/19 03:44:21;;;;;;;22.08;17.40;;;15.50;98.10;;;;;;4951120;28;20047;-52
2021/08/19 03:46:48;;;;;;;26.13;18.52;;;15.50;98.10;;;;;;4954596;29;20098;-52
2021/08/19 03:49:14;;;;;;;25.75;17.75;;;15.50;98.20;;;;;;4954744;29;20039;-52
2021/08/19 03:51:40;;;;;;;25.67;18.05;;;15.50;98.10;;;;;;4938270;29;20035;-49
2021/08/19 03:54:06;;;;;;;22.67;18.05;;;15.50;98.10;;;;;;4954255;29;20048;-51
2021/08/19 03:56:35;;;;;;;23.00;17.48;;;15.50;98.20;;;;;;4954620;29;20479;-51
2021/08/19 03:59:00;;;;;;;23.52;18.70;;;15.50;98.20;;;;;;4956341;28;20399;-49
2021/08/19 04:01:26;;;;;;;25.23;17.85;;;15.50;98.20;;;;;;4948233;29;20051;-51
2021/08/19 04:03:52;;;;;;;22.83;17.45;;;15.50;98.20;;;;;;4936761;29;20106;-48
2021/08/19 04:06:20;;;;;;;22.92;17.77;;;15.50;98.20;;;;;;4955930;29;20059;-48
2021/08/19 04:08:47;;;;;;;22.48;17.88;;;15.50;98.20;;;;;;4954517;28;20419;-52
2021/08/19 04:11:12;;;;;;;20.23;16.38;;;15.50;98.10;;;;;;4954842;28;20047;-51
2021/08/19 04:13:41;;;;;;;22.55;17.02;;;15.50;98.20;;;;;;4953784;28;20054;-51
2021/08/19 04:16:07;;;;;;;21.08;16.75;;;15.50;98.20;;;;;;4954059;28;20057;-52
2021/08/19 04:18:37;;;;;;;24.50;17.73;;;15.50;98.10;;;;;;4954945;28;20043;-48
2021/08/19 04:21:03;;;;;;;21.15;16.42;;;15.50;98.10;;;;;;4939145;29;20050;-52
2021/08/19 04:23:29;;;;;;;22.85;16.90;;;15.50;98.10;;;;;;4954013;29;20039;-52
2021/08/19 04:25:56;;;;;;;22.77;16.10;;;15.50;98.10;;;;;;4955180;28;20531;-51
2021/08/19 04:28:22;;;;;;;21.63;16.70;;;15.50;98.00;;;;;;4937382;29;20046;-48
2021/08/19 04:30:48;;;;;;;20.92;16.25;;;15.50;98.00;;;;;;4936993;29;20051;-51
2021/08/19 04:33:16;;;;;;;22.20;16.90;;;15.50;97.90;;;;;;4953445;28;20206;-49
2021/08/19 04:35:42;;;;;;;23.63;15.88;;;15.50;98.10;;;;;;4954249;29;20059;-53
2021/08/19 04:38:09;;;;;;;24.95;18.13;;;15.50;98.10;;;;;;4953493;28;20047;-50
2021/08/19 04:40:35;;;;;;;25.10;17.52;;;15.50;98.20;;;;;;4952402;29;20047;-48
2021/08/19 04:43:03;;;;;;;23.08;17.25;;;15.50;98.40;;;;;;4957865;28;20057;-51
2021/08/19 04:45:30;;;;;;;26.92;19.33;;;15.40;98.30;;;;;;4950459;29;20043;-52
2021/08/19 04:47:55;;;;;;;27.02;18.95;;;15.50;98.50;;;;;;4954013;28;20114;-51
2021/08/19 04:50:21;;;;;;;24.70;18.38;;;15.50;98.40;;;;;;4949705;29;20043;-50
2021/08/19 04:52:47;;;;;;;24.98;18.60;;;15.50;98.50;;;;;;4948941;29;20044;-54
2021/08/19 04:55:12;;;;;;;28.30;18.92;;;15.40;98.50;;;;;;4947603;29;20043;-51
2021/08/19 04:57:38;;;;;;;27.65;18.85;;;15.40;98.50;;;;;;4954579;29;20039;-50
2021/08/19 05:00:05;;;;;;;23.50;17.00;;;15.40;98.60;;;;;;4954680;28;20078;-51
2021/08/19 05:02:31;;;;;;;26.65;18.08;;;15.50;98.70;;;;;;4954767;29;20054;-49
2021/08/19 05:04:56;;;;;;;24.55;19.00;;;15.40;98.60;;;;;;4935944;29;20039;-50
2021/08/19 05:07:22;;;;;;;25.35;18.65;;;15.40;98.60;;;;;;4953913;28;20484;-50
2021/08/19 05:09:48;;;;;;;27.17;18.40;;;15.40;98.70;;;;;;4956134;28;20047;-47
2021/08/19 05:12:14;;;;;;;27.50;18.83;;;15.50;98.90;;;;;;4957646;28;20039;-47
2021/08/19 05:14:40;;;;;;;22.42;17.10;;;15.40;98.80;;;;;;4942542;28;20043;-49
2021/08/19 05:17:05;;;;;;;23.77;17.60;;;15.40;98.80;;;;;;4951101;29;20102;-51
2021/08/19 05:19:33;;;;;;;23.48;17.27;;;15.40;98.90;;;;;;4939676;28;20040;-48
2021/08/19 05:21:58;;;;;;;23.27;17.88;;;15.50;98.90;;;;;;4927380;29;20403;-53
2021/08/19 05:24:24;;;;;;;27.40;18.48;;;15.50;98.90;;;;;;4952298;28;20046;-47
2021/08/19 05:26:50;;;;;;;27.80;18.38;;;15.50;98.90;;;;;;4946614;29;20067;-50
2021/08/19 05:29:15;;;;;;;27.08;18.88;;;15.50;99.00;;;;;;4951877;29;20055;-49
2021/08/19 05:31:41;;;;;;;25.50;18.35;;;15.50;99.10;;;;;;4953267;29;20051;-52
2021/08/19 05:34:09;;;;;;;27.35;18.70;;;15.50;99.00;;;;;;4942054;28;20043;-47
2021/08/19 05:36:35;;;;;;;28.35;18.70;;;15.50;99.10;;;;;;4961879;28;20510;-50
2021/08/19 05:39:03;;;;;;;24.67;17.63;;;15.50;99.10;;;;;;4954705;28;20066;-55
2021/08/19 05:41:31;;;;;;;25.52;17.77;;;15.50;99.20;;;;;;4942983;29;20420;-51
2021/08/19 05:43:57;;;;;;;27.38;19.42;;;15.60;99.20;;;;;;4943206;28;20093;-49
2021/08/19 05:46:23;;;;;;;24.55;18.58;;;15.60;99.20;;;;;;4945863;29;20047;-49
2021/08/19 05:48:48;;;;;;;23.40;17.85;;;15.60;99.20;;;;;;4948158;29;20468;-54
2021/08/19 05:51:14;;;;;;;26.33;18.20;;;15.60;99.30;;;;;;4953950;29;20047;-50
2021/08/19 05:53:41;;;;;;;28.98;19.35;;;15.60;99.30;;;;;;4931032;29;20039;-52
2021/08/19 05:56:07;;;;;;;28.55;19.65;;;15.70;99.30;;;;;;4948623;29;20043;-48
2021/08/19 05:58:37;;;;;;;27.02;18.95;;;15.70;99.30;;;;;;4950570;28;20051;-48
2021/08/19 06:01:03;;;;;;;28.85;20.20;;;15.70;99.30;;;;;;4954541;28;20032;-49
2021/08/19 06:03:30;;;;;;;28.70;19.70;;;15.70;99.30;;;;;;4957326;29;20047;-52
2021/08/19 06:05:56;;;;;;;27.23;20.23;;;15.70;99.30;;;;;;4958171;28;20050;-50
2021/08/19 06:08:22;;;;;;;27.25;20.80;;;15.70;99.30;;;;;;4956768;29;20039;-50
2021/08/19 06:10:52;;;;;;;35.10;21.02;;;15.70;99.40;;;;;;4937958;29;20411;-49
2021/08/19 06:13:21;;;;;;;27.25;19.17;;;15.70;99.30;;;;;;4939473;29;20047;-54
2021/08/19 06:15:47;;;;;;;26.10;19.10;;;15.80;99.50;;;;;;4937737;29;20047;-54
2021/08/19 06:18:13;;;;;;;25.98;19.55;;;15.70;99.40;;;;;;4953919;29;20063;-51
2021/08/19 06:20:40;;;;;;;26.98;18.92;;;15.80;99.40;;;;;;4955763;29;20074;-53
2021/08/19 06:23:11;;;;;;;32.72;19.95;;;15.80;99.50;;;;;;4937643;29;20110;-53
2021/08/19 06:25:42;;;;;;;28.05;20.20;;;15.80;99.50;;;;;;4915702;29;20044;-54
2021/08/19 06:28:09;;;;;;;27.35;19.90;;;15.80;99.80;;;;;;4937825;29;20058;-52
2021/08/19 06:30:35;;;;;;;28.55;20.42;;;15.80;99.60;;;;;;4954212;29;20042;-51
2021/08/19 06:33:01;;;;;;;31.58;20.77;;;15.80;99.60;;;;;;4954614;29;20062;-50
2021/08/19 06:35:27;;;;;;;28.80;19.45;;;15.90;99.90;;;;;;4947130;29;20054;-52
2021/08/19 06:37:54;;;;;;;33.95;21.05;;;15.90;99.60;;;;;;4949505;28;20051;-50
2021/08/19 06:40:20;;;;;;;32.42;20.15;;;15.90;99.70;;;;;;4951293;28;20044;-51
2021/08/19 06:42:47;;;;;;;29.08;19.15;;;16.00;99.70;;;;;;4936652;28;20051;-52
2021/08/19 06:45:13;;;;;;;31.42;20.17;;;16.00;99.70;;;;;;4946637;28;20028;-52
2021/08/19 06:47:39;;;;;;;27.13;18.50;;;16.00;99.80;;;;;;4928472;29;20035;-52
2021/08/19 06:50:06;;;;;;;28.10;18.38;;;16.00;99.70;;;;;;4943042;29;20047;-53
2021/08/19 06:52:37;;;;;;;26.48;18.73;;;16.10;99.70;;;;;;4937787;29;20047;-52
2021/08/19 06:55:11;;;;;;;26.98;18.83;;;16.10;99.80;;;;;;4959001;28;20071;-53
2021/08/19 06:57:38;;;;;;;28.90;19.25;;;16.10;99.70;;;;;;4944452;29;20058;-53
2021/08/19 07:00:05;;;;;;;29.10;19.63;;;16.10;99.70;;;;;;4950734;29;20396;-53
2021/08/19 07:02:34;;;;;;;27.23;17.50;;;16.20;99.80;;;;;;4916108;28;20547;-53
2021/08/19 07:05:02;;;;;;;26.67;18.90;;;16.10;99.70;;;;;;4914089;29;20039;-51
2021/08/19 07:07:28;;;;;;;27.50;19.35;;;16.20;99.80;;;;;;4968292;28;20043;-52
2021/08/19 07:09:55;;;;;;;23.67;17.55;;;16.20;99.80;;;;;;4940551;28;20118;-50
2021/08/19 07:12:25;;;;;;;28.95;18.65;;;16.20;99.80;;;;;;4942579;29;20044;-51
2021/08/19 07:14:51;;;;;;;28.15;18.20;;;16.20;99.80;;;;;;4959107;28;20415;-54
2021/08/19 07:17:17;;;;;;;28.02;17.58;;;16.20;99.90;;;;;;4951272;29;20055;-55
2021/08/19 07:19:42;;;;;;;29.17;18.38;;;16.30;99.90;;;;;;4958466;28;20051;-55
2021/08/19 07:22:10;;;;;;;29.13;17.95;;;16.30;99.90;;;;;;4973844;28;20058;-52
2021/08/19 07:24:36;;;;;;;26.65;18.10;;;16.30;99.90;;;;;;4975520;28;20415;-55
2021/08/19 07:27:02;;;;;;;26.65;17.80;;;16.40;99.90;;;;;;4969113;28;20074;-55
2021/08/19 07:29:28;;;;;;;28.75;18.50;;;16.40;99.90;;;;;;4950498;29;20046;-55
2021/08/19 07:31:54;;;;;;;26.10;17.35;;;16.40;99.80;;;;;;4958229;29;20419;-53
2021/08/19 07:34:20;;;;;;;33.97;18.15;;;16.50;99.80;;;;;;4948807;29;20110;-49
2021/08/19 07:36:45;;;;;;;29.50;18.40;;;16.50;99.70;;;;;;4955379;28;20050;-55
2021/08/19 07:39:11;;;;;;;28.88;18.73;;;16.50;99.80;;;;;;4951394;28;20047;-55
2021/08/19 07:41:38;;;;;;;27.10;18.52;;;16.50;99.80;;;;;;4942879;29;20043;-55
2021/08/19 07:44:04;;;;;;;27.70;17.55;;;16.60;99.70;;;;;;4959913;29;20551;-54
2021/08/19 07:46:33;;;;;;;25.33;17.92;;;16.70;99.70;;;;;;4955614;29;20047;-53
2021/08/19 07:49:01;;;;;;;26.80;18.33;;;16.70;99.70;;;;;;4956387;29;20434;-50
2021/08/19 07:51:36;;;;;;;25.23;19.10;;;16.70;99.70;;;;;;4942085;29;20089;-53
2021/08/19 07:54:07;;;;;;;28.25;19.15;;;16.70;99.70;;;;;;4929756;29;20411;-48
2021/08/19 07:56:33;;;;;;;28.13;18.75;;;16.80;99.70;;;;;;4941779;28;20039;-49
2021/08/19 07:59:00;;;;;;;27.27;19.27;;;16.80;99.60;;;;;;4960270;29;20042;-53
2021/08/19 08:01:25;;;;;;;31.85;20.15;;;16.80;99.70;;;;;;4956271;29;20044;-48
2021/08/19 08:03:54;;;;;;;29.50;19.92;;;16.80;99.60;;;;;;4956572;29;20045;-54
2021/08/19 08:06:20;;;;;;;25.95;18.90;;;16.80;99.60;;;;;;4960246;28;20112;-51
2021/08/19 08:08:45;;;;;;;28.17;19.90;;;16.80;99.60;;;;;;4959207;28;20198;-50
2021/08/19 08:11:11;;;;;;;25.35;19.25;;;16.80;99.60;;;;;;4962308;28;20043;-50
2021/08/19 08:13:41;;;;;;;29.48;20.33;;;16.90;99.60;;;;;;4972618;28;20065;-51
2021/08/19 08:16:07;;;;;;;29.15;19.92;;;16.90;99.60;;;;;;4951269;28;20040;-52
2021/08/19 08:18:33;;;;;;;31.17;20.30;;;16.90;99.60;;;;;;4960882;29;20043;-48
2021/08/19 08:21:00;;;;;;;29.88;20.17;;;16.90;99.50;;;;;;4956681;28;20054;-50
2021/08/19 08:23:30;;;;;;;30.30;19.85;;;16.90;99.50;;;;;;4950439;28;20054;-51
2021/08/19 08:25:56;;;;;;;32.97;19.75;;;16.90;99.50;;;;;;4939171;29;20110;-50
2021/08/19 08:28:26;;;;;;;29.73;20.33;;;17.00;99.50;;;;;;4956997;29;20038;-52
2021/08/19 08:30:52;;;;;;;30.13;19.98;;;17.00;99.40;;;;;;4960477;28;20075;-49
2021/08/19 08:33:18;;;;;;;33.50;20.75;;;17.00;99.50;;;;;;4956074;29;20086;-49
2021/08/19 08:35:44;;;;;;;35.38;19.50;;;17.00;99.40;;;;;;4959526;28;20043;-51
2021/08/19 08:38:14;;;;;;;30.23;19.45;;;17.00;99.40;;;;;;4958745;28;20051;-54
2021/08/19 08:40:42;;;;;;;30.02;20.35;;;17.00;99.50;;;;;;4927073;29;20130;-54
2021/08/19 08:43:09;;;;;;;31.15;19.75;;;17.10;99.30;;;;;;4946568;29;20179;-52
2021/08/19 08:45:37;;;;;;;31.55;20.63;;;17.10;99.30;;;;;;4950391;28;20102;-52
2021/08/19 08:48:06;;;;;;;35.45;20.75;;;17.10;99.20;;;;;;4957741;28;20059;-52
2021/08/19 08:50:33;;;;;;;31.50;20.73;;;17.10;99.30;;;;;;4928962;29;20039;-54
2021/08/19 08:52:59;;;;;;;34.30;21.10;;;17.10;99.20;;;;;;4949802;29;20452;-51
2021/08/19 08:55:26;;;;;;;30.10;20.20;;;17.10;99.20;;;;;;4958663;28;20031;-52
2021/08/19 08:57:53;;;;;;;31.48;20.40;;;17.10;99.20;;;;;;4937172;29;20144;-54
2021/08/19 09:00:19;;;;;;;34.85;21.13;;;17.10;99.10;;;;;;4951834;29;20043;-54
2021/08/19 09:02:45;;;;;;;29.52;20.27;;;17.10;99.20;;;;;;4959787;29;20551;-52
2021/08/19 09:05:15;;;;;;;37.10;22.17;;;17.10;99.30;;;;;;4950855;28;21203;-50
2021/08/19 09:07:41;;;;;;;31.88;21.05;;;17.10;99.30;;;;;;4968818;28;20407;-53
2021/08/19 09:10:08;;;;;;;31.38;21.13;;;17.10;99.30;;;;;;4939549;29;20106;-51
2021/08/19 09:12:41;;;;;;;32.63;19.80;;;17.10;99.50;;;;;;4956970;28;20059;-51
2021/08/19 09:15:09;;;;;;;31.50;20.45;;;17.10;99.50;;;;;;4925971;29;20440;-54
2021/08/19 09:17:52;;;;;;;29.65;20.27;;;17.10;99.70;;;;;;4956678;29;20039;-53
2021/08/19 09:20:20;;;;;;;31.23;19.85;;;17.10;99.60;;;;;;4952616;29;20507;-54
2021/08/19 09:22:53;;;;;;;26.25;18.33;;;17.10;99.50;;;;;;4927725;29;20054;-52
2021/08/19 09:25:44;;;;;;;31.30;18.92;;;17.20;99.60;;;;;;4934950;29;20040;-51
2021/08/19 09:28:27;;;;;;;29.13;18.67;;;17.30;99.50;;;;;;4927287;29;20051;-54
2021/08/19 09:30:58;;;;;;;31.25;20.08;;;17.30;99.40;;;;;;4944242;29;20039;-52
2021/08/19 09:33:27;;;;;;;30.87;20.90;;;17.30;99.20;;;;;;4939576;29;20054;-55
2021/08/19 09:35:57;;;;;;;28.48;20.45;;;17.40;99.30;;;;;;4936560;29;20122;-53
2021/08/19 09:38:25;;;;;;;29.83;20.40;;;17.50;99.30;;;;;;4941071;29;20043;-52
2021/08/19 09:41:04;;;;;;;34.50;20.55;;;17.50;99.30;;;;;;4951914;29;20043;-50
2021/08/19 09:43:52;;;;;;;26.63;19.10;;;17.60;99.30;;;;;;4955739;29;20073;-54
2021/08/19 09:46:31;;;;;;;31.13;20.33;;;17.60;99.10;;;;;;4933798;29;20043;-53
2021/08/19 09:49:00;;;;;;;27.70;18.80;;;17.70;98.90;;;;;;4947664;29;20031;-47
2021/08/19 09:51:29;;;;;;;26.30;17.90;;;17.70;98.70;;;;;;4926030;29;20098;-50
2021/08/19 09:53:58;;;;;;;29.20;19.55;;;17.70;98.40;;;;;;4953646;29;20180;-48
2021/08/19 09:56:30;;;;;;;26.17;19.33;;;17.80;98.40;;;;;;4960091;28;20043;-48
2021/08/19 09:59:24;;;;;;;26.35;18.38;;;17.80;98.40;;;;;;4927315;29;20102;-48
2021/08/19 10:01:53;;;;;;;26.77;19.23;;;17.90;98.30;;;;;;4958988;29;20050;-53
2021/08/19 10:04:20;;;;;;;28.15;18.48;;;17.90;98.20;;;;;;4952685;29;20062;-49
2021/08/19 10:06:47;;;;;;;29.00;17.48;;;18.00;98.10;;;;;;4922901;29;20407;-47
2021/08/19 10:09:13;;;;;;;26.58;19.15;;;18.00;98.00;;;;;;4952613;29;20046;-51
2021/08/19 10:11:51;;;;;;;25.48;17.33;;;18.00;97.90;;;;;;4952657;29;20044;-48
2021/08/19 10:14:20;;;;;;;23.30;17.13;;;18.00;97.90;;;;;;4940036;28;20463;-53
2021/08/19 10:16:47;;;;;;;26.23;17.48;;;18.10;97.80;;;;;;4932496;29;20047;-53
2021/08/19 10:19:23;;;;;;;22.45;16.00;;;18.10;97.80;;;;;;4936803;29;20122;-53
2021/08/19 10:21:52;;;;;;;27.45;17.73;;;18.10;97.60;;;;;;4947370;29;20047;-53
2021/08/19 10:24:34;;;;;;;29.02;17.85;;;18.00;97.60;;;;;;4952458;28;20035;-52
2021/08/19 10:27:22;;;;;;;27.75;17.33;;;18.00;97.60;;;;;;4951895;29;20047;-54
2021/08/19 10:30:06;;;;;;;31.75;16.45;;;18.00;97.70;;;;;;4949583;29;20055;-52
2021/08/19 10:32:39;;;;;;;25.80;16.80;;;17.90;97.70;;;;;;4935541;29;20042;-54
2021/08/19 10:35:13;;;;;;;29.48;17.38;;;17.80;97.70;;;;;;4953256;28;20044;-53
2021/08/19 10:37:48;;;;;;;26.73;16.48;;;17.80;97.80;;;;;;4922910;29;20057;-51
2021/08/19 10:40:23;;;;;;;26.83;16.23;;;17.70;97.80;;;;;;4915032;29;20039;-50
2021/08/19 10:42:57;;;;;;;25.63;16.60;;;17.70;98.00;;;;;;4928507;29;20136;-48
2021/08/19 10:45:26;;;;;;;26.02;16.80;;;17.60;98.10;;;;;;4948244;28;20462;-51
2021/08/19 10:48:23;;;;;;;25.23;16.83;;;17.60;98.20;;;;;;4957126;29;20035;-50
2021/08/19 10:50:49;;;;;;;23.60;15.68;;;17.60;98.30;;;;;;4937698;29;20050;-49
2021/08/19 10:53:21;;;;;;;24.85;15.55;;;17.60;98.30;;;;;;4956434;29;20055;-51
2021/08/19 10:55:50;;;;;;;25.42;14.05;;;17.60;98.30;;;;;;4956350;29;20074;-51
2021/08/19 10:58:31;;;;;;;23.10;14.40;;;17.60;98.20;;;;;;4947900;29;20087;-48
2021/08/19 11:01:22;;;;;;;23.58;14.38;;;17.70;98.10;;;;;;4953626;29;20050;-51
2021/08/19 11:03:54;;;;;;;24.23;14.45;;;17.70;98.00;;;;;;4937804;29;20040;-50
2021/08/19 11:06:44;;;;;;;21.15;13.80;;;17.60;97.90;;;;;;4954153;29;20051;-49
2021/08/19 11:09:13;;;;;;;17.98;12.82;;;17.60;97.90;;;;;;4948084;29;20043;-48
2021/08/19 11:11:39;;;;;;;18.77;12.45;;;17.60;98.00;;;;;;4946903;29;20124;-51
2021/08/19 11:14:12;;;;;;;21.63;12.45;;;17.50;98.00;;;;;;4947337;29;20130;-51
2021/08/19 11:16:41;;;;;;;17.42;11.85;;;17.50;98.10;;;;;;4947956;29;20075;-50
2021/08/19 11:19:18;;;;;;;25.00;12.65;;;17.40;98.20;;;;;;4934123;29;20070;-50
2021/08/19 11:21:49;;;;;;;21.52;12.65;;;17.40;98.30;;;;;;4948374;29;20152;-50
2021/08/19 11:24:15;;;;;;;20.27;12.10;;;17.50;98.40;;;;;;4930980;29;20102;-51
2021/08/19 11:26:55;;;;;;;20.08;12.38;;;17.50;98.50;;;;;;4955074;29;20058;-51
2021/08/19 11:29:39;;;;;;;19.00;12.07;;;17.50;98.50;;;;;;4953493;29;20067;-51
2021/08/19 11:32:16;;;;;;;17.13;12.27;;;17.50;98.60;;;;;;4934558;29;20094;-52
2021/08/19 11:34:50;;;;;;;21.33;12.05;;;17.60;98.60;;;;;;4932900;29;20129;-50
2021/08/19 11:37:33;;;;;;;15.60;11.00;;;17.50;98.50;;;;;;4948205;29;20079;-47
2021/08/19 11:40:00;;;;;;;20.00;11.80;;;17.50;98.40;;;;;;4945828;29;20419;-51
2021/08/19 11:42:32;;;;;;;16.85;10.70;;;17.50;98.40;;;;;;4948183;29;20036;-51
2021/08/19 11:45:20;;;;;;;20.00;10.82;;;17.50;98.40;;;;;;4933547;29;20138;-51
2021/08/19 11:47:46;;;;;;;21.58;11.32;;;17.50;98.60;;;;;;4941236;29;20050;-52
2021/08/19 11:50:20;;;;;;;17.88;10.77;;;17.50;98.60;;;;;;4943688;29;20048;-53
2021/08/19 11:52:46;;;;;;;19.20;10.85;;;17.50;98.60;;;;;;4950697;28;20047;-53
2021/08/19 11:55:12;;;;;;;16.92;10.95;;;17.50;98.60;;;;;;4949321;28;20075;-51
2021/08/19 11:57:38;;;;;;;18.40;10.88;;;17.60;98.60;;;;;;4946439;29;20051;-55
2021/08/19 12:00:08;;;;;;;14.90;11.20;;;17.60;98.60;;;;;;4917792;29;20047;-51
2021/08/19 12:02:34;;;;;;;18.15;11.45;;;17.70;98.50;;;;;;4935754;29;20067;-51
2021/08/19 12:05:06;;;;;;;16.58;11.20;;;17.70;98.50;;;;;;4951266;28;20118;-51
2021/08/19 12:07:37;;;;;;;18.52;11.68;;;17.80;98.50;;;;;;4954555;29;20039;-55
2021/08/19 12:10:06;;;;;;;22.10;13.55;;;17.80;98.40;;;;;;4943515;29;20040;-52
2021/08/19 12:12:36;;;;;;;18.50;11.75;;;17.90;98.40;;;;;;4944730;29;20481;-52
2021/08/19 12:15:08;;;;;;;23.45;12.30;;;17.90;98.20;;;;;;4946143;29;20148;-54
2021/08/19 12:17:36;;;;;;;16.88;12.00;;;17.90;98.00;;;;;;4930472;29;20171;-53
2021/08/19 12:20:12;;;;;;;17.80;12.70;;;17.80;97.80;;;;;;4946721;28;20044;-55
2021/08/19 12:22:39;;;;;;;15.27;11.98;;;17.80;97.80;;;;;;4950985;29;20043;-48
2021/08/19 12:25:14;;;;;;;22.35;13.30;;;17.80;97.80;;;;;;4954166;29;20047;-49
2021/08/19 12:27:40;;;;;;;18.13;11.95;;;17.80;97.80;;;;;;4956155;29;20059;-50
2021/08/19 12:30:07;;;;;;;21.20;13.13;;;17.80;97.80;;;;;;4951232;29;20409;-52
2021/08/19 12:32:35;;;;;;;16.95;12.25;;;17.80;97.60;;;;;;4955272;28;20142;-48